KAIZ/AIZ METAR and TAF weather

Enter ICAO airport designator
Station Type Date Time Source
KAIZ METAR 2020/07/09 06:56 UTC NOAA

KAIZ 090656Z AUTO 16003KT 10SM CLR 23/22 A2989 RMK AO2 SLP110 T02330222


Station Type Date Time Source
KAIZ Decoded METAR 2020/07/09 06:56 UTC NOAA

Kaiser Lake Ozark, Lee C Fine Memorial Airport, MO, United States (KAIZ) 38-06N 092-33W
Jul 09, 2020 - 02:56 AM EDT / 2020.07.09 0656 UTC
Wind: from the SSE (160 degrees) at 3 MPH (3 KT):0
Visibility: 10 mile(s):0
Sky conditions: clear
Temperature: 73.9 F (23.3 C)
Dew Point: 72.0 F (22.2 C)
Relative Humidity: 93%
Pressure (altimeter): 29.89 in. Hg (1012 hPa)
ob: KAIZ 090656Z AUTO 16003KT 10SM CLR 23/22 A2989 RMK AO2 SLP110 T02330222
cycle: 7

Station Type Date Time Source
KAIZ TAF UTC NOAA

Error!

Example: see airport list